sensor_id;sensor_type;location;lat;lon;timestamp;P1;durP1;ratioP1;P2;durP2;ratioP2
85939;SDS011;76505;46.706;12.340;2024-03-08T00:00:24;7.137500000000001;;;2.9125;;
85939;SDS011;76505;46.706;12.340;2024-03-08T00:01:24;7.7749999999999995;;;2.9;;
85939;SDS011;76505;46.706;12.340;2024-03-08T00:02:24;6.5625;;;2.775;;
85939;SDS011;76505;46.706;12.340;2024-03-08T00:03:24;6.9375;;;2.95;;
85939;SDS011;76505;46.706;12.340;2024-03-08T00:04:24;6.5375000000000005;;;2.6000000000000005;;
85939;SDS011;76505;46.706;12.340;2024-03-08T00:05:24;7.525;;;2.85;;
85939;SDS011;76505;46.706;12.340;2024-03-08T00:06:25;7.075;;;2.5875;;
85939;SDS011;76505;46.706;12.340;2024-03-08T00:07:24;8.975000000000001;;;2.7249999999999996;;
85939;SDS011;76505;46.706;12.340;2024-03-08T00:08:24;7.262499999999999;;;2.55;;
85939;SDS011;76505;46.706;12.340;2024-03-08T00:09:24;7.85;;;2.5875000000000004;;
85939;SDS011;76505;46.706;12.340;2024-03-08T00:10:24;7.375;;;2.5125;;
85939;SDS011;76505;46.706;12.340;2024-03-08T00:11:26;6.199999999999999;;;2.375;;
85939;SDS011;76505;46.706;12.340;2024-03-08T00:12:26;8.1;;;2.375;;
85939;SDS011;76505;46.706;12.340;2024-03-08T00:13:25;7.0375;;;2.575;;
85939;SDS011;76505;46.706;12.340;2024-03-08T00:14:24;7.7375;;;2.5375;;
85939;SDS011;76505;46.706;12.340;2024-03-08T00:15:24;7.550000000000001;;;3.1;;
85939;SDS011;76505;46.706;12.340;2024-03-08T00:16:24;6.8;;;2.675;;
85939;SDS011;76505;46.706;12.340;2024-03-08T00:17:24;7.4125;;;2.4625;;
85939;SDS011;76505;46.706;12.340;2024-03-08T00:18:24;7.375;;;2.8875;;
85939;SDS011;76505;46.706;12.340;2024-03-08T00:19:23;6.85;;;2.625;;
85939;SDS011;76505;46.706;12.340;2024-03-08T00:20:24;7.2250000000000005;;;2.6375;;
85939;SDS011;76505;46.706;12.340;2024-03-08T00:21:24;6.3875;;;2.3125;;
85939;SDS011;76505;46.706;12.340;2024-03-08T00:22:24;6.4;;;2.2375;;
85939;SDS011;76505;46.706;12.340;2024-03-08T00:23:24;7.5875;;;2.8;;
85939;SDS011;76505;46.706;12.340;2024-03-08T00:24:25;7.7375;;;2.95;;
85939;SDS011;76505;46.706;12.340;2024-03-08T00:25:24;7.4625;;;2.8374999999999995;;
85939;SDS011;76505;46.706;12.340;2024-03-08T00:26:24;7.6625;;;2.7125;;
85939;SDS011;76505;46.706;12.340;2024-03-08T00:27:24;6.862499999999999;;;2.2249999999999996;;
85939;SDS011;76505;46.706;12.340;2024-03-08T00:28:25;7.125;;;2.7125;;
85939;SDS011;76505;46.706;12.340;2024-03-08T00:29:24;6.8125;;;2.6;;
85939;SDS011;76505;46.706;12.340;2024-03-08T00:30:25;6.3125;;;2.2375;;
85939;SDS011;76505;46.706;12.340;2024-03-08T00:31:23;6.5;;;2.5875000000000004;;
85939;SDS011;76505;46.706;12.340;2024-03-08T00:32:25;5.4;;;1.9625000000000001;;
85939;SDS011;76505;46.706;12.340;2024-03-08T00:33:24;6.4875;;;2.4875;;
85939;SDS011;76505;46.706;12.340;2024-03-08T00:34:24;6.875;;;1.975;;
85939;SDS011;76505;46.706;12.340;2024-03-08T00:35:24;6.137499999999999;;;2.6125000000000003;;
85939;SDS011;76505;46.706;12.340;2024-03-08T00:36:25;6.825;;;2.3;;
85939;SDS011;76505;46.706;12.340;2024-03-08T00:37:24;6.675;;;2.1125;;
85939;SDS011;76505;46.706;12.340;2024-03-08T00:38:23;7.8125;;;2.25;;
85939;SDS011;76505;46.706;12.340;2024-03-08T00:39:24;8.5875;;;2.975;;
85939;SDS011;76505;46.706;12.340;2024-03-08T00:40:24;6.8125;;;2.475;;
85939;SDS011;76505;46.706;12.340;2024-03-08T00:41:26;6.9875;;;2.825;;
85939;SDS011;76505;46.706;12.340;2024-03-08T00:42:24;8.65;;;2.3875;;
85939;SDS011;76505;46.706;12.340;2024-03-08T00:43:24;6.625;;;2.575;;
85939;SDS011;76505;46.706;12.340;2024-03-08T00:44:24;6.25;;;2.1125;;
85939;SDS011;76505;46.706;12.340;2024-03-08T00:45:24;7.5;;;2.55;;
85939;SDS011;76505;46.706;12.340;2024-03-08T00:46:24;6.825;;;2.7375;;
85939;SDS011;76505;46.706;12.340;2024-03-08T00:47:24;8.4125;;;3.0250000000000004;;
85939;SDS011;76505;46.706;12.340;2024-03-08T00:48:24;10.15;;;3.1;;
85939;SDS011;76505;46.706;12.340;2024-03-08T00:49:23;9.725;;;3.6;;
85939;SDS011;76505;46.706;12.340;2024-03-08T00:50:24;8.0125;;;2.7125;;
85939;SDS011;76505;46.706;12.340;2024-03-08T00:51:24;8.4375;;;3.1625;;
85939;SDS011;76505;46.706;12.340;2024-03-08T00:52:24;8.1375;;;2.3625;;
85939;SDS011;76505;46.706;12.340;2024-03-08T00:53:24;7.225;;;2.775;;
85939;SDS011;76505;46.706;12.340;2024-03-08T00:54:24;7.125;;;3.075;;
85939;SDS011;76505;46.706;12.340;2024-03-08T00:55:24;6.950000000000001;;;2.625;;
85939;SDS011;76505;46.706;12.340;2024-03-08T00:56:25;7.15;;;2.6625;;
85939;SDS011;76505;46.706;12.340;2024-03-08T00:57:24;9.75;;;3.0;;
85939;SDS011;76505;46.706;12.340;2024-03-08T00:58:24;7.987500000000001;;;2.8125;;
85939;SDS011;76505;46.706;12.340;2024-03-08T00:59:24;7.2250000000000005;;;2.425;;
85939;SDS011;76505;46.706;12.340;2024-03-08T01:00:24;7.862500000000001;;;2.8125;;
85939;SDS011;76505;46.706;12.340;2024-03-08T01:01:25;7.7;;;2.7249999999999996;;
85939;SDS011;76505;46.706;12.340;2024-03-08T01:02:24;7.0125;;;2.6500000000000004;;
85939;SDS011;76505;46.706;12.340;2024-03-08T01:03:23;8.399999999999999;;;2.8499999999999996;;
85939;SDS011;76505;46.706;12.340;2024-03-08T01:04:26;6.475;;;2.5;;
85939;SDS011;76505;46.706;12.340;2024-03-08T01:05:24;7.025;;;2.525;;
85939;SDS011;76505;46.706;12.340;2024-03-08T01:06:24;6.6;;;2.425;;
85939;SDS011;76505;46.706;12.340;2024-03-08T01:07:24;6.3625;;;2.4125;;
85939;SDS011;76505;46.706;12.340;2024-03-08T01:08:24;6.4625;;;2.1750000000000003;;
85939;SDS011;76505;46.706;12.340;2024-03-08T01:09:24;6.05;;;2.2375;;
85939;SDS011;76505;46.706;12.340;2024-03-08T01:10:24;8.125;;;2.6375;;
85939;SDS011;76505;46.706;12.340;2024-03-08T01:11:24;6.975;;;2.575;;
85939;SDS011;76505;46.706;12.340;2024-03-08T01:12:23;6.012499999999999;;;2.1875;;
85939;SDS011;76505;46.706;12.340;2024-03-08T01:13:24;5.4375;;;2.0125;;
85939;SDS011;76505;46.706;12.340;2024-03-08T01:14:24;5.95;;;2.125;;
85939;SDS011;76505;46.706;12.340;2024-03-08T01:15:24;5.8125;;;2.0625;;
85939;SDS011;76505;46.706;12.340;2024-03-08T01:16:24;6.3375;;;2.3875;;
85939;SDS011;76505;46.706;12.340;2024-03-08T01:17:24;7.0625;;;2.4875;;
85939;SDS011;76505;46.706;12.340;2024-03-08T01:18:24;6.625;;;2.4875;;
85939;SDS011;76505;46.706;12.340;2024-03-08T01:19:24;6.512499999999999;;;2.5125;;
85939;SDS011;76505;46.706;12.340;2024-03-08T01:20:23;6.7625;;;2.55;;
85939;SDS011;76505;46.706;12.340;2024-03-08T01:21:24;6.137500000000001;;;2.0125;;
85939;SDS011;76505;46.706;12.340;2024-03-08T01:22:24;6.6625;;;2.5;;
85939;SDS011;76505;46.706;12.340;2024-03-08T01:23:24;6.6875;;;2.3375000000000004;;
85939;SDS011;76505;46.706;12.340;2024-03-08T01:24:24;5.7875;;;2.125;;
85939;SDS011;76505;46.706;12.340;2024-03-08T01:25:23;5.512499999999999;;;1.9249999999999998;;
85939;SDS011;76505;46.706;12.340;2024-03-08T01:26:24;6.3375;;;2.075;;
85939;SDS011;76505;46.706;12.340;2024-03-08T01:27:25;5.4375;;;1.8875;;
85939;SDS011;76505;46.706;12.340;2024-03-08T01:28:24;6.325;;;1.8375000000000001;;
85939;SDS011;76505;46.706;12.340;2024-03-08T01:29:24;5.85;;;2.025;;
85939;SDS011;76505;46.706;12.340;2024-03-08T01:30:24;6.6625;;;1.575;;
85939;SDS011;76505;46.706;12.340;2024-03-08T01:31:24;6.75;;;2.3125;;
85939;SDS011;76505;46.706;12.340;2024-03-08T01:32:23;5.9;;;2.0375;;
85939;SDS011;76505;46.706;12.340;2024-03-08T01:33:24;5.75;;;2.1125;;
85939;SDS011;76505;46.706;12.340;2024-03-08T01:34:24;5.925;;;1.9875;;
85939;SDS011;76505;46.706;12.340;2024-03-08T01:35:24;5.35;;;1.8375;;
85939;SDS011;76505;46.706;12.340;2024-03-08T01:36:25;5.762499999999999;;;2.075;;
85939;SDS011;76505;46.706;12.340;2024-03-08T01:37:24;5.7875;;;2.175;;
85939;SDS011;76505;46.706;12.340;2024-03-08T01:38:24;5.5875;;;1.9625;;
85939;SDS011;76505;46.706;12.340;2024-03-08T01:39:24;7.6375;;;2.1500000000000004;;
85939;SDS011;76505;46.706;12.340;2024-03-08T01:40:24;6.1499999999999995;;;2.125;;
85939;SDS011;76505;46.706;12.340;2024-03-08T01:41:24;5.0375;;;1.7000000000000002;;
85939;SDS011;76505;46.706;12.340;2024-03-08T01:42:24;5.075;;;2.05;;
85939;SDS011;76505;46.706;12.340;2024-03-08T01:43:25;7.225;;;2.575;;
85939;SDS011;76505;46.706;12.340;2024-03-08T01:44:24;5.775;;;2.2875;;
85939;SDS011;76505;46.706;12.340;2024-03-08T01:45:24;5.35;;;1.725;;
85939;SDS011;76505;46.706;12.340;2024-03-08T01:46:24;5.699999999999999;;;1.8250000000000002;;
85939;SDS011;76505;46.706;12.340;2024-03-08T01:47:23;6.0;;;2.075;;
85939;SDS011;76505;46.706;12.340;2024-03-08T01:48:24;5.612500000000001;;;2.0250000000000004;;
85939;SDS011;76505;46.706;12.340;2024-03-08T01:49:25;5.4375;;;1.875;;
85939;SDS011;76505;46.706;12.340;2024-03-08T01:50:24;5.55;;;1.7875;;
85939;SDS011;76505;46.706;12.340;2024-03-08T01:51:23;5.925;;;1.975;;
85939;SDS011;76505;46.706;12.340;2024-03-08T01:52:25;4.5375;;;1.3375;;
85939;SDS011;76505;46.706;12.340;2024-03-08T01:53:24;6.6;;;2.5374999999999996;;
85939;SDS011;76505;46.706;12.340;2024-03-08T01:54:24;6.050000000000001;;;2.0375;;
85939;SDS011;76505;46.706;12.340;2024-03-08T01:55:24;5.6125;;;2.2;;
85939;SDS011;76505;46.706;12.340;2024-03-08T01:56:25;5.5;;;1.7875;;
85939;SDS011;76505;46.706;12.340;2024-03-08T01:57:25;5.7875;;;1.95;;
85939;SDS011;76505;46.706;12.340;2024-03-08T01:58:24;6.425000000000001;;;1.4875;;
85939;SDS011;76505;46.706;12.340;2024-03-08T01:59:24;5.449999999999999;;;1.9;;
85939;SDS011;76505;46.706;12.340;2024-03-08T02:00:24;4.7625;;;1.325;;
85939;SDS011;76505;46.706;12.340;2024-03-08T02:01:24;5.95;;;1.5875;;
85939;SDS011;76505;46.706;12.340;2024-03-08T02:02:24;5.5625;;;1.8375;;
85939;SDS011;76505;46.706;12.340;2024-03-08T02:03:24;5.550000000000001;;;1.775;;
85939;SDS011;76505;46.706;12.340;2024-03-08T02:04:24;5.55;;;1.6625;;
85939;SDS011;76505;46.706;12.340;2024-03-08T02:05:24;4.3;;;1.3;;
85939;SDS011;76505;46.706;12.340;2024-03-08T02:06:24;5.3125;;;1.6375000000000002;;
85939;SDS011;76505;46.706;12.340;2024-03-08T02:07:23;5.424999999999999;;;1.5750000000000002;;
85939;SDS011;76505;46.706;12.340;2024-03-08T02:08:24;5.0375;;;1.625;;
85939;SDS011;76505;46.706;12.340;2024-03-08T02:09:24;5.025;;;1.6125;;
85939;SDS011;76505;46.706;12.340;2024-03-08T02:10:24;4.975;;;2.0625;;
85939;SDS011;76505;46.706;12.340;2024-03-08T02:11:24;7.125;;;1.825;;
85939;SDS011;76505;46.706;12.340;2024-03-08T02:12:23;4.975;;;1.6375;;
85939;SDS011;76505;46.706;12.340;2024-03-08T02:13:24;5.3375;;;1.7;;
85939;SDS011;76505;46.706;12.340;2024-03-08T02:14:24;4.5;;;1.35;;
85939;SDS011;76505;46.706;12.340;2024-03-08T02:15:24;4.5;;;1.4875;;
85939;SDS011;76505;46.706;12.340;2024-03-08T02:16:24;5.05;;;1.7375;;
85939;SDS011;76505;46.706;12.340;2024-03-08T02:17:24;5.55;;;1.7625;;
85939;SDS011;76505;46.706;12.340;2024-03-08T02:18:24;4.5375;;;1.3875;;
85939;SDS011;76505;46.706;12.340;2024-03-08T02:19:24;5.925000000000001;;;2.05;;
85939;SDS011;76505;46.706;12.340;2024-03-08T02:20:24;5.1875;;;1.5375;;
85939;SDS011;76505;46.706;12.340;2024-03-08T02:21:24;5.0625;;;1.725;;
85939;SDS011;76505;46.706;12.340;2024-03-08T02:22:24;5.675;;;2.05;;
85939;SDS011;76505;46.706;12.340;2024-03-08T02:23:25;5.3625;;;1.9249999999999998;;
85939;SDS011;76505;46.706;12.340;2024-03-08T02:24:24;6.5375000000000005;;;1.9875;;
85939;SDS011;76505;46.706;12.340;2024-03-08T02:25:23;5.875;;;1.6375;;
85939;SDS011;76505;46.706;12.340;2024-03-08T02:26:24;6.3875;;;2.275;;
85939;SDS011;76505;46.706;12.340;2024-03-08T02:27:24;5.525;;;1.5625;;
85939;SDS011;76505;46.706;12.340;2024-03-08T02:28:25;6.65;;;1.9375;;
85939;SDS011;76505;46.706;12.340;2024-03-08T02:29:24;5.3125;;;1.8375000000000001;;
85939;SDS011;76505;46.706;12.340;2024-03-08T02:30:23;4.925000000000001;;;1.5375;;
85939;SDS011;76505;46.706;12.340;2024-03-08T02:31:23;5.4;;;2.025;;
85939;SDS011;76505;46.706;12.340;2024-03-08T02:32:24;6.175;;;1.9249999999999998;;
85939;SDS011;76505;46.706;12.340;2024-03-08T02:33:24;4.85;;;1.5;;
85939;SDS011;76505;46.706;12.340;2024-03-08T02:34:24;5.3125;;;1.8875;;
85939;SDS011;76505;46.706;12.340;2024-03-08T02:35:24;6.7125;;;1.7999999999999998;;
85939;SDS011;76505;46.706;12.340;2024-03-08T02:36:24;5.25;;;1.8875;;
85939;SDS011;76505;46.706;12.340;2024-03-08T02:37:24;5.2375;;;1.8;;
85939;SDS011;76505;46.706;12.340;2024-03-08T02:38:24;6.525;;;1.75;;
85939;SDS011;76505;46.706;12.340;2024-03-08T02:39:23;5.2125;;;1.6;;
85939;SDS011;76505;46.706;12.340;2024-03-08T02:40:24;5.5375;;;2.125;;
85939;SDS011;76505;46.706;12.340;2024-03-08T02:41:23;8.237499999999999;;;1.825;;
85939;SDS011;76505;46.706;12.340;2024-03-08T02:42:23;6.137499999999999;;;1.7625;;
85939;SDS011;76505;46.706;12.340;2024-03-08T02:43:24;6.0875;;;1.7625000000000002;;
85939;SDS011;76505;46.706;12.340;2024-03-08T02:44:24;4.612500000000001;;;1.4874999999999998;;
85939;SDS011;76505;46.706;12.340;2024-03-08T02:45:24;5.875;;;1.7125;;
85939;SDS011;76505;46.706;12.340;2024-03-08T02:46:24;5.9375;;;2.0125;;
85939;SDS011;76505;46.706;12.340;2024-03-08T02:47:24;5.25;;;1.7875;;
85939;SDS011;76505;46.706;12.340;2024-03-08T02:48:24;4.699999999999999;;;1.5875;;
85939;SDS011;76505;46.706;12.340;2024-03-08T02:49:23;4.9624999999999995;;;1.6875;;
85939;SDS011;76505;46.706;12.340;2024-03-08T02:50:25;6.7875;;;2.1375;;
85939;SDS011;76505;46.706;12.340;2024-03-08T02:51:26;4.925;;;1.4874999999999998;;
85939;SDS011;76505;46.706;12.340;2024-03-08T02:52:23;4.9;;;1.7374999999999998;;
85939;SDS011;76505;46.706;12.340;2024-03-08T02:53:24;5.125;;;1.6875;;
85939;SDS011;76505;46.706;12.340;2024-03-08T02:54:24;5.887499999999999;;;1.7874999999999999;;
85939;SDS011;76505;46.706;12.340;2024-03-08T02:55:26;6.6625;;;1.975;;
85939;SDS011;76505;46.706;12.340;2024-03-08T02:56:24;6.800000000000001;;;2.45;;
85939;SDS011;76505;46.706;12.340;2024-03-08T02:57:24;5.9375;;;2.2625;;
85939;SDS011;76505;46.706;12.340;2024-03-08T02:58:29;4.575;;;1.4;;
85939;SDS011;76505;46.706;12.340;2024-03-08T02:59:24;4.9625;;;1.5375;;
85939;SDS011;76505;46.706;12.340;2024-03-08T03:00:24;5.6;;;1.8125;;
85939;SDS011;76505;46.706;12.340;2024-03-08T03:01:24;5.3875;;;1.7875;;
85939;SDS011;76505;46.706;12.340;2024-03-08T03:02:24;4.987500000000001;;;1.6125;;
85939;SDS011;76505;46.706;12.340;2024-03-08T03:03:24;6.675;;;1.55;;
85939;SDS011;76505;46.706;12.340;2024-03-08T03:04:24;4.862500000000001;;;1.5875;;
85939;SDS011;76505;46.706;12.340;2024-03-08T03:05:24;5.1875;;;1.4749999999999999;;
85939;SDS011;76505;46.706;12.340;2024-03-08T03:06:24;6.9624999999999995;;;1.6;;
85939;SDS011;76505;46.706;12.340;2024-03-08T03:07:24;5.2;;;2.125;;
85939;SDS011;76505;46.706;12.340;2024-03-08T03:08:24;5.1125;;;1.8;;
85939;SDS011;76505;46.706;12.340;2024-03-08T03:09:27;5.7625;;;1.9875;;
85939;SDS011;76505;46.706;12.340;2024-03-08T03:10:24;5.137499999999999;;;1.5125000000000002;;
85939;SDS011;76505;46.706;12.340;2024-03-08T03:11:24;6.1875;;;1.875;;
85939;SDS011;76505;46.706;12.340;2024-03-08T03:12:24;8.975000000000001;;;2.0125;;
85939;SDS011;76505;46.706;12.340;2024-03-08T03:13:24;4.8625;;;1.5875000000000001;;
85939;SDS011;76505;46.706;12.340;2024-03-08T03:14:24;7.7125;;;1.8125;;
85939;SDS011;76505;46.706;12.340;2024-03-08T03:15:24;4.875;;;1.5125000000000002;;
85939;SDS011;76505;46.706;12.340;2024-03-08T03:16:24;5.012499999999999;;;1.525;;
85939;SDS011;76505;46.706;12.340;2024-03-08T03:17:24;4.125;;;1.225;;
85939;SDS011;76505;46.706;12.340;2024-03-08T03:18:24;4.5875;;;1.6749999999999998;;
85939;SDS011;76505;46.706;12.340;2024-03-08T03:19:24;4.0375;;;1.3125;;
85939;SDS011;76505;46.706;12.340;2024-03-08T03:20:26;4.362500000000001;;;1.375;;
85939;SDS011;76505;46.706;12.340;2024-03-08T03:21:24;4.8;;;1.4375;;
85939;SDS011;76505;46.706;12.340;2024-03-08T03:22:25;4.4125000000000005;;;1.4;;
85939;SDS011;76505;46.706;12.340;2024-03-08T03:23:24;5.800000000000001;;;1.6875;;
85939;SDS011;76505;46.706;12.340;2024-03-08T03:24:24;4.475;;;1.2625000000000002;;
85939;SDS011;76505;46.706;12.340;2024-03-08T03:25:25;4.6125;;;1.3;;
85939;SDS011;76505;46.706;12.340;2024-03-08T03:26:24;4.8375;;;1.2750000000000001;;
85939;SDS011;76505;46.706;12.340;2024-03-08T03:27:25;4.925;;;1.3875000000000002;;
85939;SDS011;76505;46.706;12.340;2024-03-08T03:28:24;5.275;;;1.5875;;
85939;SDS011;76505;46.706;12.340;2024-03-08T03:29:25;8.049999999999999;;;1.7374999999999998;;
85939;SDS011;76505;46.706;12.340;2024-03-08T03:30:26;5.375;;;1.775;;
85939;SDS011;76505;46.706;12.340;2024-03-08T03:31:25;4.8125;;;1.075;;
85939;SDS011;76505;46.706;12.340;2024-03-08T03:32:24;5.2625;;;1.6375;;
85939;SDS011;76505;46.706;12.340;2024-03-08T03:33:24;4.3;;;1.425;;
85939;SDS011;76505;46.706;12.340;2024-03-08T03:34:24;5.275;;;1.4375;;
85939;SDS011;76505;46.706;12.340;2024-03-08T03:35:24;4.95;;;1.3499999999999999;;
85939;SDS011;76505;46.706;12.340;2024-03-08T03:36:25;4.725;;;1.275;;
85939;SDS011;76505;46.706;12.340;2024-03-08T03:37:24;4.9;;;1.525;;
85939;SDS011;76505;46.706;12.340;2024-03-08T03:38:26;5.15;;;1.725;;
85939;SDS011;76505;46.706;12.340;2024-03-08T03:39:24;5.0125;;;1.3625;;
85939;SDS011;76505;46.706;12.340;2024-03-08T03:40:25;4.3;;;1.1875;;
85939;SDS011;76505;46.706;12.340;2024-03-08T03:41:24;4.5375;;;1.475;;
85939;SDS011;76505;46.706;12.340;2024-03-08T03:42:25;5.5125;;;1.5875;;
85939;SDS011;76505;46.706;12.340;2024-03-08T03:43:24;4.8875;;;1.5;;
85939;SDS011;76505;46.706;12.340;2024-03-08T03:44:24;4.862500000000001;;;1.2875;;
85939;SDS011;76505;46.706;12.340;2024-03-08T03:45:24;4.737500000000001;;;1.4625;;
85939;SDS011;76505;46.706;12.340;2024-03-08T03:46:24;4.1875;;;1.325;;
85939;SDS011;76505;46.706;12.340;2024-03-08T03:47:24;5.0125;;;1.4000000000000001;;
85939;SDS011;76505;46.706;12.340;2024-03-08T03:48:24;4.5874999999999995;;;1.3125;;
85939;SDS011;76505;46.706;12.340;2024-03-08T03:49:24;4.1375;;;1.3375;;
85939;SDS011;76505;46.706;12.340;2024-03-08T03:50:24;4.0375;;;1.2625000000000002;;
85939;SDS011;76505;46.706;12.340;2024-03-08T03:51:24;5.525;;;1.6125;;
85939;SDS011;76505;46.706;12.340;2024-03-08T03:52:24;4.300000000000001;;;1.275;;
85939;SDS011;76505;46.706;12.340;2024-03-08T03:53:26;4.0;;;1.2999999999999998;;
85939;SDS011;76505;46.706;12.340;2024-03-08T03:54:24;4.0625;;;1.0999999999999999;;
85939;SDS011;76505;46.706;12.340;2024-03-08T03:55:24;4.475;;;1.3875;;
85939;SDS011;76505;46.706;12.340;2024-03-08T03:56:25;5.375;;;1.4625;;
85939;SDS011;76505;46.706;12.340;2024-03-08T03:57:24;4.4375;;;1.25;;
85939;SDS011;76505;46.706;12.340;2024-03-08T03:58:24;4.125;;;1.25;;
85939;SDS011;76505;46.706;12.340;2024-03-08T03:59:24;4.2875000000000005;;;1.3;;
85939;SDS011;76505;46.706;12.340;2024-03-08T04:00:27;3.9375;;;1.25;;
85939;SDS011;76505;46.706;12.340;2024-03-08T04:01:24;5.15;;;1.6375000000000002;;
85939;SDS011;76505;46.706;12.340;2024-03-08T04:02:29;4.612500000000001;;;1.2875;;
85939;SDS011;76505;46.706;12.340;2024-03-08T04:03:24;4.1;;;1.225;;
85939;SDS011;76505;46.706;12.340;2024-03-08T04:04:24;4.1125;;;1.2;;
85939;SDS011;76505;46.706;12.340;2024-03-08T04:05:24;5.0375000000000005;;;1.4375;;
85939;SDS011;76505;46.706;12.340;2024-03-08T04:06:24;4.3125;;;1.4124999999999999;;
85939;SDS011;76505;46.706;12.340;2024-03-08T04:07:25;4.575;;;1.3250000000000002;;
85939;SDS011;76505;46.706;12.340;2024-03-08T04:08:24;4.75;;;1.8125;;
85939;SDS011;76505;46.706;12.340;2024-03-08T04:09:24;5.4375;;;1.525;;
85939;SDS011;76505;46.706;12.340;2024-03-08T04:10:24;4.4;;;1.2375;;
85939;SDS011;76505;46.706;12.340;2024-03-08T04:11:24;4.7375;;;1.3;;
85939;SDS011;76505;46.706;12.340;2024-03-08T04:12:24;4.387499999999999;;;1.5375;;
85939;SDS011;76505;46.706;12.340;2024-03-08T04:13:24;4.2875;;;1.2875;;
85939;SDS011;76505;46.706;12.340;2024-03-08T04:14:24;4.9375;;;1.2374999999999998;;
85939;SDS011;76505;46.706;12.340;2024-03-08T04:15:24;5.475;;;1.675;;
85939;SDS011;76505;46.706;12.340;2024-03-08T04:16:24;4.925;;;1.6875;;
85939;SDS011;76505;46.706;12.340;2024-03-08T04:17:24;5.05;;;1.5125000000000002;;
85939;SDS011;76505;46.706;12.340;2024-03-08T04:18:24;5.45;;;1.8125;;
85939;SDS011;76505;46.706;12.340;2024-03-08T04:19:24;4.625;;;1.25;;
85939;SDS011;76505;46.706;12.340;2024-03-08T04:20:24;4.025;;;1.2625;;
85939;SDS011;76505;46.706;12.340;2024-03-08T04:21:24;4.6875;;;1.35;;
85939;SDS011;76505;46.706;12.340;2024-03-08T04:22:24;4.5;;;1.6375;;
85939;SDS011;76505;46.706;12.340;2024-03-08T04:23:24;5.2;;;1.3625;;
85939;SDS011;76505;46.706;12.340;2024-03-08T04:24:24;4.125;;;1.2375;;
85939;SDS011;76505;46.706;12.340;2024-03-08T04:25:24;4.775;;;1.3875;;
85939;SDS011;76505;46.706;12.340;2024-03-08T04:26:24;4.2125;;;1.1749999999999998;;
85939;SDS011;76505;46.706;12.340;2024-03-08T04:27:24;5.324999999999999;;;2.8125;;
85939;SDS011;76505;46.706;12.340;2024-03-08T04:28:24;6.25;;;2.4000000000000004;;
85939;SDS011;76505;46.706;12.340;2024-03-08T04:29:24;8.25;;;3.1375;;
85939;SDS011;76505;46.706;12.340;2024-03-08T04:30:24;8.3125;;;3.875;;
85939;SDS011;76505;46.706;12.340;2024-03-08T04:31:24;7.387499999999999;;;3.0375;;
85939;SDS011;76505;46.706;12.340;2024-03-08T04:32:24;5.1125;;;1.7625000000000002;;
85939;SDS011;76505;46.706;12.340;2024-03-08T04:33:24;4.0375;;;1.2875;;
85939;SDS011;76505;46.706;12.340;2024-03-08T04:34:24;4.362500000000001;;;1.2875;;
85939;SDS011;76505;46.706;12.340;2024-03-08T04:35:24;4.7;;;1.45;;
85939;SDS011;76505;46.706;12.340;2024-03-08T04:36:25;4.987500000000001;;;1.4249999999999998;;
85939;SDS011;76505;46.706;12.340;2024-03-08T04:37:24;3.9875;;;1.3375;;
85939;SDS011;76505;46.706;12.340;2024-03-08T04:38:25;4.625;;;1.4625;;
85939;SDS011;76505;46.706;12.340;2024-03-08T04:39:24;5.2;;;1.7125;;
85939;SDS011;76505;46.706;12.340;2024-03-08T04:40:24;4.5625;;;1.3875000000000002;;
85939;SDS011;76505;46.706;12.340;2024-03-08T04:41:24;5.1375;;;1.4625;;
85939;SDS011;76505;46.706;12.340;2024-03-08T04:42:24;4.625;;;1.275;;
85939;SDS011;76505;46.706;12.340;2024-03-08T04:43:27;4.1875;;;1.075;;
85939;SDS011;76505;46.706;12.340;2024-03-08T04:44:24;4.575;;;1.2875;;
85939;SDS011;76505;46.706;12.340;2024-03-08T04:45:26;4.7625;;;1.5;;
85939;SDS011;76505;46.706;12.340;2024-03-08T04:46:24;13.0625;;;5.824999999999999;;
85939;SDS011;76505;46.706;12.340;2024-03-08T04:47:24;14.987499999999999;;;6.6;;
85939;SDS011;76505;46.706;12.340;2024-03-08T04:48:24;10.6875;;;5.1875;;
85939;SDS011;76505;46.706;12.340;2024-03-08T04:49:24;10.5125;;;5.3875;;
85939;SDS011;76505;46.706;12.340;2024-03-08T04:50:24;9.825;;;4.825;;
85939;SDS011;76505;46.706;12.340;2024-03-08T04:51:24;7.0625;;;2.9625;;
85939;SDS011;76505;46.706;12.340;2024-03-08T04:52:24;7.9;;;3.1375;;
85939;SDS011;76505;46.706;12.340;2024-03-08T04:53:24;5.85;;;2.0625;;
85939;SDS011;76505;46.706;12.340;2024-03-08T04:54:24;6.449999999999999;;;2.25;;
85939;SDS011;76505;46.706;12.340;2024-03-08T04:55:25;5.862500000000001;;;2.0;;
85939;SDS011;76505;46.706;12.340;2024-03-08T04:56:24;7.1875;;;2.2874999999999996;;
85939;SDS011;76505;46.706;12.340;2024-03-08T04:57:24;5.949999999999999;;;2.2249999999999996;;
85939;SDS011;76505;46.706;12.340;2024-03-08T04:58:24;4.6625;;;1.6125;;
85939;SDS011;76505;46.706;12.340;2024-03-08T04:59:24;5.175;;;1.4500000000000002;;
85939;SDS011;76505;46.706;12.340;2024-03-08T05:00:24;4.5;;;1.4125;;
85939;SDS011;76505;46.706;12.340;2024-03-08T05:01:24;5.4125;;;1.8875000000000002;;
85939;SDS011;76505;46.706;12.340;2024-03-08T05:02:24;5.925;;;1.8125;;
85939;SDS011;76505;46.706;12.340;2024-03-08T05:03:26;5.5875;;;1.9;;
85939;SDS011;76505;46.706;12.340;2024-03-08T05:04:24;5.65;;;1.7625000000000002;;
85939;SDS011;76505;46.706;12.340;2024-03-08T05:05:24;5.8875;;;1.9375;;
85939;SDS011;76505;46.706;12.340;2024-03-08T05:06:24;5.5625;;;1.5750000000000002;;
85939;SDS011;76505;46.706;12.340;2024-03-08T05:07:24;5.4;;;1.5375;;
85939;SDS011;76505;46.706;12.340;2024-03-08T05:08:24;5.5375;;;1.55;;
85939;SDS011;76505;46.706;12.340;2024-03-08T05:09:24;5.637499999999999;;;1.5625;;
85939;SDS011;76505;46.706;12.340;2024-03-08T05:10:24;5.325;;;1.45;;
85939;SDS011;76505;46.706;12.340;2024-03-08T05:11:24;4.9625;;;1.7125;;
85939;SDS011;76505;46.706;12.340;2024-03-08T05:12:24;6.3625;;;1.4625;;
85939;SDS011;76505;46.706;12.340;2024-03-08T05:13:24;5.75;;;1.8;;
85939;SDS011;76505;46.706;12.340;2024-03-08T05:14:25;5.7125;;;1.75;;
85939;SDS011;76505;46.706;12.340;2024-03-08T05:15:24;5.2625;;;1.6125;;
85939;SDS011;76505;46.706;12.340;2024-03-08T05:16:24;6.0249999999999995;;;1.4375;;
85939;SDS011;76505;46.706;12.340;2024-03-08T05:17:24;4.325;;;1.3499999999999999;;
85939;SDS011;76505;46.706;12.340;2024-03-08T05:18:24;5.575;;;1.65;;
85939;SDS011;76505;46.706;12.340;2024-03-08T05:19:24;4.425;;;1.3250000000000002;;
85939;SDS011;76505;46.706;12.340;2024-03-08T05:20:24;5.9875;;;1.4875;;